Time;durP1;ratioP1;P1;durP2;ratioP2;P2;SDS_P1;SDS_P2;PMS_P1;PMS_P2;Temp;Humidity;BMP_temperature;BMP_pressure;BME280_temperature;BME280_humidity;BME280_pressure;Samples;Min_cycle;Max_cycle;Signal;HPM_P1;HPM_P2
2021/01/10 00:00:58;;;;;;;40.50;25.82;;;;;;;-0.66;74.73;101274.73;1740536;81;21423;-79
2021/01/10 00:03:26;;;;;;;45.33;26.40;;;;;;;-0.66;74.73;101277.31;1814133;77;20935;-80
2021/01/10 00:05:55;;;;;;;44.90;26.75;;;;;;;-0.69;74.75;101276.45;1814231;77;20960;-77
2021/01/10 00:08:23;;;;;;;45.00;26.93;;;;;;;-0.65;74.73;101280.73;1814265;77;21189;-78
2021/01/10 00:10:51;;;;;;;45.38;25.50;;;;;;;-0.68;74.70;101281.61;1740620;81;21073;-79
2021/01/10 00:13:19;;;;;;;37.65;23.30;;;;;;;-0.66;74.64;101286.33;1814167;77;20958;-81
2021/01/10 00:15:47;;;;;;;37.80;24.50;;;;;;;-0.67;74.65;101288.89;1740466;81;20919;-79
2021/01/10 00:18:16;;;;;;;39.00;23.83;;;;;;;-0.67;74.63;101291.47;1814167;77;20927;-80
2021/01/10 00:20:44;;;;;;;42.80;25.05;;;;;;;-0.69;74.73;101297.94;1740392;81;20946;-78
2021/01/10 00:23:12;;;;;;;44.20;26.70;;;;;;;-0.71;74.76;101289.35;1814199;77;20994;-79
2021/01/10 00:25:42;;;;;;;41.15;25.35;;;;;;;-0.71;74.72;101294.50;1740440;81;21030;-80
2021/01/10 00:28:10;;;;;;;46.77;26.80;;;;;;;-0.74;74.62;101294.93;1814174;77;20955;-77
2021/01/10 00:30:39;;;;;;;44.33;24.98;;;;;;;-0.76;74.58;101294.08;1740342;81;21560;-77
2021/01/10 00:33:07;;;;;;;39.55;24.20;;;;;;;-0.80;74.59;101293.65;1814116;77;21187;-79
2021/01/10 00:35:37;;;;;;;43.00;23.42;;;;;;;-0.84;74.55;101285.95;1760080;81;20955;-79
2021/01/10 00:38:05;;;;;;;40.38;24.82;;;;;;;-0.88;74.62;101283.38;1815495;77;21034;-78
2021/01/10 00:40:34;;;;;;;40.48;24.47;;;;;;;-0.90;74.63;101283.38;1746837;80;21031;-81
2021/01/10 00:43:04;;;;;;;37.13;23.45;;;;;;;-0.92;74.67;101282.95;1751086;80;21050;-79
2021/01/10 00:45:32;;;;;;;37.63;24.25;;;;;;;-0.98;74.71;101286.38;1780697;78;21634;-78
2021/01/10 00:48:00;;;;;;;37.85;21.68;;;;;;;-0.98;74.77;101287.67;1730906;79;21026;-77
2021/01/10 00:50:29;;;;;;;38.35;23.32;;;;;;;-1.02;74.82;101290.25;1780147;78;20987;-79
2021/01/10 00:52:57;;;;;;;42.10;23.85;;;;;;;-1.02;74.83;101291.54;1781494;79;20908;-79
2021/01/10 00:55:25;;;;;;;44.35;24.52;;;;;;;-1.05;74.88;101288.11;1781700;79;21031;-80
2021/01/10 00:57:54;;;;;;;40.45;23.75;;;;;;;-1.02;74.97;101296.69;1781439;79;21166;-80
2021/01/10 01:00:24;;;;;;;38.15;22.30;;;;;;;-1.03;74.98;101290.69;1779455;79;21441;-79
2021/01/10 01:02:53;;;;;;;44.00;25.12;;;;;;;-1.03;75.00;101294.98;1752387;79;21448;-80
2021/01/10 01:05:22;;;;;;;38.58;22.98;;;;;;;-1.02;75.00;101290.25;1777644;79;21076;-78
2021/01/10 01:07:52;;;;;;;42.73;24.63;;;;;;;-1.03;75.05;101300.14;1752325;79;21078;-78
2021/01/10 01:10:22;;;;;;;40.90;24.45;;;;;;;-1.01;74.99;101295.41;1777275;79;21134;-79
2021/01/10 01:12:50;;;;;;;38.38;21.87;;;;;;;-1.03;74.98;101301.42;1777410;79;20935;-78
2021/01/10 01:15:18;;;;;;;43.13;24.50;;;;;;;-1.04;75.03;101298.00;1777574;79;21018;-79
2021/01/10 01:17:46;;;;;;;40.05;24.12;;;;;;;-1.04;75.04;101296.72;1777675;79;20935;-77
2021/01/10 01:20:15;;;;;;;41.63;25.25;;;;;;;-1.05;75.03;101292.41;1777607;79;21010;-78
2021/01/10 01:22:43;;;;;;;42.93;24.25;;;;;;;-1.05;75.01;101290.69;1777673;79;20999;-80
2021/01/10 01:25:12;;;;;;;38.67;25.08;;;;;;;-1.06;75.04;101301.00;1777526;79;20990;-80
2021/01/10 01:27:40;;;;;;;43.40;25.68;;;;;;;-1.03;75.01;101290.69;1777682;79;20966;-78
2021/01/10 01:30:10;;;;;;;38.15;24.23;;;;;;;-1.05;75.04;101289.84;1777900;79;20943;-78
2021/01/10 01:32:38;;;;;;;41.08;23.62;;;;;;;-1.03;74.97;101289.41;1778059;79;20939;-80
2021/01/10 01:35:07;;;;;;;34.48;22.30;;;;;;;-1.04;75.03;101290.28;1777717;79;22110;-79
2021/01/10 01:37:35;;;;;;;35.95;23.57;;;;;;;-1.03;75.01;101294.98;1772853;79;21088;-83
2021/01/10 01:40:07;;;;;;;36.50;23.02;;;;;;;-1.01;75.03;101293.27;1738900;81;21049;-78
2021/01/10 01:42:35;;;;;;;35.65;22.60;;;;;;;-1.04;74.97;101291.56;1787400;78;21526;-78
2021/01/10 01:45:06;;;;;;;33.78;21.45;;;;;;;-1.04;74.92;101286.42;1787198;78;20972;-77
2021/01/10 01:47:34;;;;;;;37.15;22.70;;;;;;;-1.06;74.96;101288.98;1787245;77;21213;-78
2021/01/10 01:50:07;;;;;;;39.15;22.02;;;;;;;-1.04;74.95;101291.56;1787219;78;21482;-78
2021/01/10 01:52:35;;;;;;;35.92;22.07;;;;;;;-1.05;74.95;101286.83;1787425;78;21005;-78
2021/01/10 01:55:04;;;;;;;34.85;21.00;;;;;;;-1.06;75.02;101284.27;1787322;77;20993;-78
2021/01/10 01:57:32;;;;;;;41.23;23.22;;;;;;;-1.06;74.96;101282.98;1787169;78;21033;-78
2021/01/10 02:00:00;;;;;;;34.85;22.42;;;;;;;-1.08;75.00;101283.42;1787183;78;21159;-78
2021/01/10 02:02:28;;;;;;;39.15;23.67;;;;;;;-1.07;74.98;101274.41;1787153;78;21514;-80
2021/01/10 02:05:07;;;;;;;36.65;22.50;;;;;;;-1.09;75.00;101276.13;1818883;77;20929;-77
2021/01/10 02:07:52;;;;;;;36.25;21.77;;;;;;;-1.07;74.95;101277.39;1762721;78;20969;-78
2021/01/10 02:10:30;;;;;;;35.23;21.05;;;;;;;-1.08;74.88;101276.98;1786981;78;21959;-77
2021/01/10 02:13:02;;;;;;;43.17;23.30;;;;;;;-1.09;74.86;101277.42;1787241;78;21256;-77
2021/01/10 02:15:35;;;;;;;41.63;22.60;;;;;;;-1.08;74.79;101284.27;1787180;78;20926;-76
2021/01/10 02:18:06;;;;;;;33.58;21.85;;;;;;;-1.09;74.78;101289.41;1787102;78;21016;-77
2021/01/10 02:20:38;;;;;;;32.08;20.82;;;;;;;-1.09;74.77;101281.28;1762321;78;21001;-78
2021/01/10 02:23:21;;;;;;;40.25;22.73;;;;;;;-1.07;74.59;101286.00;1787510;78;21321;-77
2021/01/10 02:25:49;;;;;;;33.85;20.77;;;;;;;-1.08;74.67;101279.12;1787245;77;21241;-77
2021/01/10 02:28:22;;;;;;;36.38;21.33;;;;;;;-1.06;74.56;101284.27;1787213;78;21379;-78
2021/01/10 02:30:51;;;;;;;30.80;18.82;;;;;;;-1.08;74.55;101277.83;1787184;78;21320;-77
2021/01/10 02:33:36;;;;;;;33.25;19.10;;;;;;;-1.07;74.46;101279.56;1761948;78;21387;-77
2021/01/10 02:36:19;;;;;;;33.80;20.72;;;;;;;-1.07;74.43;101284.71;1787144;78;21419;-78
2021/01/10 02:38:52;;;;;;;31.52;19.25;;;;;;;-1.08;74.29;101279.12;1804683;78;21171;-77
2021/01/10 02:41:48;;;;;;;33.13;20.70;;;;;;;-1.04;74.28;101278.70;1775421;79;22857;-78
2021/01/10 02:44:36;;;;;;;35.33;21.37;;;;;;;-1.11;74.27;101274.39;1719953;82;20962;-79
2021/01/10 02:47:07;;;;;;;31.65;19.50;;;;;;;-1.12;74.22;101271.41;1706981;83;21202;-79
2021/01/10 02:49:36;;;;;;;35.43;21.30;;;;;;;-1.16;74.29;101268.41;1691115;83;21408;-78
2021/01/10 02:52:04;;;;;;;33.15;21.20;;;;;;;-1.17;74.26;101270.56;1691135;83;21049;-78
2021/01/10 02:54:32;;;;;;;37.25;20.05;;;;;;;-1.18;74.30;101272.70;1691412;83;21483;-78
2021/01/10 02:57:22;;;;;;;37.25;23.42;;;;;;;-1.20;74.33;101269.27;1691257;83;21002;-78
2021/01/10 02:59:50;;;;;;;34.43;19.98;;;;;;;-1.20;74.31;101278.27;1691211;83;21488;-79
2021/01/10 03:02:18;;;;;;;29.05;18.45;;;;;;;-1.25;74.37;101271.41;1691127;83;20942;-78
2021/01/10 03:04:47;;;;;;;38.42;20.08;;;;;;;-1.25;74.38;101271.41;1691304;83;20927;-78
2021/01/10 03:07:17;;;;;;;33.30;20.17;;;;;;;-1.25;74.39;101273.13;1668507;83;20970;-77
2021/01/10 03:09:44;;;;;;;33.98;20.52;;;;;;;-1.26;74.42;101276.58;1696096;83;20962;-79
2021/01/10 03:12:26;;;;;;;37.25;21.77;;;;;;;-1.25;74.34;101276.98;1719832;83;20944;-80
2021/01/10 03:14:58;;;;;;;38.95;21.62;;;;;;;-1.28;74.43;101281.71;1691072;83;21393;-78
2021/01/10 03:17:44;;;;;;;35.75;20.88;;;;;;;-1.30;74.43;101273.13;1691117;83;20963;-78
2021/01/10 03:20:20;;;;;;;38.53;23.55;;;;;;;-1.27;74.38;101280.87;1691073;83;21018;-78
2021/01/10 03:23:16;;;;;;;39.50;21.20;;;;;;;-1.25;74.42;101275.27;1824789;77;22765;-78
2021/01/10 03:25:44;;;;;;;38.90;22.67;;;;;;;-1.29;74.40;101277.84;1786451;78;20930;-78
2021/01/10 03:28:12;;;;;;;39.92;23.27;;;;;;;-1.31;74.40;101275.30;1728957;81;21856;-78
2021/01/10 03:30:40;;;;;;;40.98;22.07;;;;;;;-1.31;74.36;101281.72;1722642;82;21015;-79
2021/01/10 03:33:08;;;;;;;41.90;23.38;;;;;;;-1.34;74.43;101277.84;1740160;81;21622;-77
2021/01/10 03:35:37;;;;;;;42.15;23.18;;;;;;;-1.33;74.46;101280.02;1733085;81;21046;-78
2021/01/10 03:38:05;;;;;;;41.40;22.52;;;;;;;-1.34;74.42;101284.28;1788250;78;20946;-77
2021/01/10 03:40:33;;;;;;;41.55;21.23;;;;;;;-1.35;74.55;101283.02;1745264;82;21188;-77
2021/01/10 03:43:02;;;;;;;36.93;21.52;;;;;;;-1.35;74.52;101292.88;1787701;78;21013;-77
2021/01/10 03:45:30;;;;;;;37.33;20.68;;;;;;;-1.37;74.58;101294.58;1774852;78;20963;-77
2021/01/10 03:47:59;;;;;;;38.40;21.27;;;;;;;-1.35;74.61;101302.31;1769625;79;21526;-79
2021/01/10 03:50:27;;;;;;;33.58;20.75;;;;;;;-1.36;74.65;101298.00;1786573;78;20975;-77
2021/01/10 03:52:57;;;;;;;34.38;21.10;;;;;;;-1.35;74.60;101301.87;1799278;78;22100;-79
2021/01/10 03:55:24;;;;;;;34.20;21.12;;;;;;;-1.37;74.67;101310.02;1719037;82;20987;-77
2021/01/10 03:57:53;;;;;;;39.18;22.62;;;;;;;-1.38;74.68;101308.31;1777673;78;20955;-78
2021/01/10 04:00:21;;;;;;;37.50;21.37;;;;;;;-1.38;74.63;101308.31;1787869;78;21172;-77
2021/01/10 04:02:51;;;;;;;38.33;23.95;;;;;;;-1.42;74.75;101313.02;1750117;81;21014;-78
2021/01/10 04:05:20;;;;;;;49.55;27.85;;;;;;;-1.41;74.77;101316.02;1776341;78;21167;-76
2021/01/10 04:07:48;;;;;;;41.37;24.35;;;;;;;-1.43;74.80;101320.30;1776365;78;21117;-77
2021/01/10 04:10:17;;;;;;;47.25;26.55;;;;;;;-1.42;74.79;101317.29;1780243;78;20961;-77
2021/01/10 04:12:44;;;;;;;44.98;25.70;;;;;;;-1.43;74.89;101316.44;1719114;82;20967;-78
2021/01/10 04:15:14;;;;;;;41.63;24.12;;;;;;;-1.43;74.93;101315.59;1776152;78;21025;-79
2021/01/10 04:17:41;;;;;;;44.13;23.42;;;;;;;-1.42;74.88;101316.00;1745411;82;21076;-78
2021/01/10 04:20:11;;;;;;;41.63;23.62;;;;;;;-1.44;74.93;101323.74;1779261;78;21579;-79
2021/01/10 04:22:39;;;;;;;41.68;24.70;;;;;;;-1.40;74.85;101323.30;1812743;78;21037;-78
2021/01/10 04:25:07;;;;;;;52.03;25.88;;;;;;;-1.41;74.86;101332.73;1777791;78;21384;-76
2021/01/10 04:27:35;;;;;;;50.33;27.35;;;;;;;-1.38;74.88;101332.75;1740299;81;20958;-77
2021/01/10 04:30:06;;;;;;;43.78;24.95;;;;;;;-1.39;74.80;101333.59;1783466;78;21001;-78
2021/01/10 04:32:34;;;;;;;37.73;22.40;;;;;;;-1.37;74.66;101337.47;1814645;78;20977;-77
2021/01/10 04:35:04;;;;;;;35.13;20.85;;;;;;;-1.40;74.52;101340.90;1708527;81;20938;-76
2021/01/10 04:37:32;;;;;;;31.10;19.65;;;;;;;-1.44;74.44;101343.03;1787339;78;20922;-78
2021/01/10 04:40:00;;;;;;;35.25;21.95;;;;;;;-1.48;74.45;101343.88;1785986;78;20986;-77
2021/01/10 04:42:28;;;;;;;38.00;23.38;;;;;;;-1.51;74.56;101347.75;1713697;81;21066;-77
2021/01/10 04:44:58;;;;;;;34.18;20.48;;;;;;;-1.52;74.54;101344.29;1740654;80;20971;-76
2021/01/10 04:47:26;;;;;;;36.85;23.00;;;;;;;-1.53;74.59;101349.45;1745968;80;21053;-76
2021/01/10 04:49:54;;;;;;;37.23;22.60;;;;;;;-1.53;74.70;101354.59;1725585;80;20962;-77
2021/01/10 04:52:22;;;;;;;34.90;21.60;;;;;;;-1.56;74.79;101356.71;1776343;80;20958;-76
2021/01/10 04:54:50;;;;;;;39.10;22.50;;;;;;;-1.55;74.84;101353.73;1752936;78;21188;-77
2021/01/10 04:57:18;;;;;;;33.28;21.93;;;;;;;-1.53;74.92;101359.30;1696569;82;21002;-76
2021/01/10 04:59:46;;;;;;;32.98;19.73;;;;;;;-1.53;74.94;101361.88;1783149;78;21137;-78
2021/01/10 05:02:15;;;;;;;35.00;21.90;;;;;;;-1.50;74.91;101365.73;1727739;82;21376;-78
2021/01/10 05:04:44;;;;;;;36.15;20.43;;;;;;;-1.50;74.96;101369.59;1717685;82;21034;-78
2021/01/10 05:07:17;;;;;;;35.15;21.62;;;;;;;-1.49;74.92;101373.89;1776845;78;21000;-79
2021/01/10 05:09:46;;;;;;;36.93;21.25;;;;;;;-1.47;74.99;101366.16;1720074;81;21400;-79
2021/01/10 05:12:15;;;;;;;34.90;21.93;;;;;;;-1.46;74.95;101366.17;1738355;81;21373;-76
2021/01/10 05:14:45;;;;;;;34.10;20.02;;;;;;;-1.44;74.98;101369.19;1736698;81;20938;-77
2021/01/10 05:17:21;;;;;;;36.60;21.07;;;;;;;-1.42;74.94;101368.73;1771951;80;20967;-78
2021/01/10 05:19:53;;;;;;;42.83;23.95;;;;;;;-1.39;74.85;101369.61;1741468;80;21468;-78
2021/01/10 05:22:21;;;;;;;39.53;21.50;;;;;;;-1.41;74.83;101368.75;1743417;80;21022;-78
2021/01/10 05:24:50;;;;;;;36.33;22.02;;;;;;;-1.38;74.81;101380.75;1782530;80;20951;-78
2021/01/10 05:27:18;;;;;;;36.63;21.95;;;;;;;-1.39;74.81;101376.05;1743018;80;21504;-79
2021/01/10 05:29:47;;;;;;;42.50;22.45;;;;;;;-1.36;74.73;101385.03;1776047;80;20938;-76
2021/01/10 05:32:15;;;;;;;39.73;24.20;;;;;;;-1.36;74.65;101390.19;1783269;78;21180;-78
2021/01/10 05:34:59;;;;;;;36.63;22.45;;;;;;;-1.38;74.66;101385.89;1755548;78;20974;-78
2021/01/10 05:37:29;;;;;;;38.05;22.27;;;;;;;-1.37;74.65;101385.91;1702610;83;20966;-78
2021/01/10 05:39:57;;;;;;;32.93;22.40;;;;;;;-1.39;74.60;101394.05;1717714;82;20924;-80
2021/01/10 05:42:33;;;;;;;31.70;20.12;;;;;;;-1.38;74.54;101394.91;1720183;81;20999;-79
2021/01/10 05:45:00;;;;;;;37.67;22.55;;;;;;;-1.42;74.64;101405.63;1819329;78;21138;-78
2021/01/10 05:47:38;;;;;;;35.13;22.25;;;;;;;-1.41;74.61;101409.91;1714651;82;21031;-78
2021/01/10 05:50:15;;;;;;;36.17;21.90;;;;;;;-1.41;74.69;101410.34;1771085;78;21024;-78
2021/01/10 05:52:42;;;;;;;34.85;22.00;;;;;;;-1.41;74.75;101418.91;1784929;78;20970;-78
2021/01/10 05:55:10;;;;;;;35.73;22.75;;;;;;;-1.38;74.69;101412.91;1786016;78;20986;-77
2021/01/10 05:57:39;;;;;;;36.45;21.65;;;;;;;-1.38;74.70;101409.94;1819196;78;21288;-77
2021/01/10 06:00:08;;;;;;;38.83;22.70;;;;;;;-1.34;74.66;101421.06;1710124;81;21007;-78
2021/01/10 06:02:37;;;;;;;41.05;23.20;;;;;;;-1.30;74.62;101421.51;1711955;82;21110;-78
2021/01/10 06:05:17;;;;;;;36.08;22.48;;;;;;;-1.28;74.54;101425.80;1800004;78;21380;-78
2021/01/10 06:07:48;;;;;;;41.25;23.42;;;;;;;-1.24;74.49;101426.67;1809793;78;20993;-77
2021/01/10 06:10:29;;;;;;;44.05;24.35;;;;;;;-1.22;74.42;101429.23;1739147;81;21180;-78
2021/01/10 06:13:06;;;;;;;34.58;22.25;;;;;;;-1.18;74.37;101433.09;1715377;79;21307;-78
2021/01/10 06:15:35;;;;;;;49.70;24.45;;;;;;;-1.13;74.27;101440.41;1778737;77;20990;-78
2021/01/10 06:18:05;;;;;;;36.58;21.35;;;;;;;-1.08;74.21;101439.12;1722077;80;20947;-77
2021/01/10 06:20:34;;;;;;;40.52;23.87;;;;;;;-1.02;74.07;101441.72;1785590;78;21030;-77
2021/01/10 06:23:04;;;;;;;43.00;24.43;;;;;;;-1.03;74.02;101445.13;1778139;78;22637;-78
2021/01/10 06:25:38;;;;;;;47.10;27.62;;;;;;;-1.00;73.95;101449.42;1789880;78;20954;-78
2021/01/10 06:28:11;;;;;;;47.33;32.88;;;;;;;-0.98;73.89;101452.42;1747681;81;20959;-78
2021/01/10 06:30:59;;;;;;;37.00;25.85;;;;;;;-0.96;73.77;101455.01;1787696;78;21070;-77
2021/01/10 06:33:30;;;;;;;44.05;25.77;;;;;;;-0.95;73.74;101462.73;1779810;78;21519;-79
2021/01/10 06:36:05;;;;;;;38.38;23.62;;;;;;;-0.95;73.72;101464.47;1781561;78;21088;-78
2021/01/10 06:38:40;;;;;;;40.35;24.30;;;;;;;-0.91;73.63;101467.45;1801282;78;20982;-77
2021/01/10 06:41:17;;;;;;;38.63;24.23;;;;;;;-0.91;73.63;101468.33;1709960;81;21053;-77
2021/01/10 06:43:48;;;;;;;41.45;24.82;;;;;;;-0.87;73.52;101464.91;1783330;78;21705;-77
2021/01/10 06:46:17;;;;;;;41.63;24.85;;;;;;;-0.82;73.51;101458.88;1814250;78;20955;-77
2021/01/10 06:48:44;;;;;;;39.53;24.55;;;;;;;-0.77;73.44;101458.47;1739482;81;21190;-77
2021/01/10 06:51:12;;;;;;;46.53;27.58;;;;;;;-0.73;73.40;101457.61;1781421;78;20986;-77
2021/01/10 06:55:03;;;;;;;38.88;25.75;;;;;;;-0.60;73.28;101464.88;1813439;79;22576;-78
2021/01/10 06:57:31;;;;;;;46.20;29.37;;;;;;;-0.58;73.17;101470.46;1755648;80;21384;-72
2021/01/10 07:00:09;;;;;;;46.60;27.73;;;;;;;-0.50;73.08;101470.03;1755493;80;21181;-79
2021/01/10 07:03:06;;;;;;;48.75;30.30;;;;;;;-0.43;72.99;101459.30;1755666;80;21631;-79
2021/01/10 07:06:05;;;;;;;51.75;31.33;;;;;;;-0.30;72.85;101466.59;1754893;80;20954;-78
2021/01/10 07:08:43;;;;;;;53.48;30.45;;;;;;;-0.19;72.78;101463.56;1752530;80;21380;-80
2021/01/10 07:11:26;;;;;;;57.00;31.25;;;;;;;-0.09;72.50;101457.53;1755576;80;20954;-80
2021/01/10 07:14:03;;;;;;;51.90;33.13;;;;;;;-0.02;72.37;101462.24;1755627;80;22119;-78
2021/01/10 07:16:31;;;;;;;53.65;32.03;;;;;;;0.01;72.25;101458.80;1755566;80;21037;-79
2021/01/10 07:19:03;;;;;;;60.67;35.52;;;;;;;0.01;72.15;101459.64;1755624;80;21006;-80
2021/01/10 07:21:35;;;;;;;58.63;34.08;;;;;;;0.01;72.25;101463.52;1755696;80;21013;-80
2021/01/10 07:24:26;;;;;;;72.87;38.28;;;;;;;0.06;72.18;101460.48;1755921;80;21495;-77
2021/01/10 07:26:59;;;;;;;64.45;34.63;;;;;;;0.07;72.26;101465.20;1755545;80;21098;-80
2021/01/10 07:29:42;;;;;;;58.78;35.48;;;;;;;0.12;72.18;101469.93;1755614;80;21665;-80
2021/01/10 07:32:09;;;;;;;66.12;36.50;;;;;;;0.15;72.10;101466.89;1754785;80;21076;-78
2021/01/10 07:34:51;;;;;;;69.25;39.58;;;;;;;0.16;72.12;101466.05;1755436;80;21096;-78
2021/01/10 07:37:29;;;;;;;66.10;41.25;;;;;;;0.23;72.14;101468.61;1734026;80;21097;-78
2021/01/10 07:40:07;;;;;;;65.52;41.35;;;;;;;0.28;72.16;101470.73;1755542;80;20978;-76
2021/01/10 07:42:40;;;;;;;88.05;45.88;;;;;;;0.36;71.95;101471.13;1755407;80;22020;-78
2021/01/10 07:45:22;;;;;;;77.27;45.12;;;;;;;0.40;71.89;101470.26;1755888;80;20962;-78
2021/01/10 07:47:52;;;;;;;75.92;44.67;;;;;;;0.47;71.79;101474.08;1755528;80;21045;-77
2021/01/10 07:50:23;;;;;;;85.77;48.35;;;;;;;0.50;71.78;101467.63;1755947;80;21025;-78
2021/01/10 07:52:56;;;;;;;76.28;47.45;;;;;;;0.60;71.72;101462.83;1755326;79;22181;-78
2021/01/10 07:55:26;;;;;;;74.87;48.25;;;;;;;0.67;71.34;101456.80;1751274;80;21377;-80
2021/01/10 07:58:07;;;;;;;81.10;47.58;;;;;;;0.76;71.28;101463.19;1751085;81;20950;-81
2021/01/10 08:00:49;;;;;;;74.92;46.95;;;;;;;0.85;71.16;101455.83;1750938;80;20966;-81
2021/01/10 08:03:24;;;;;;;90.92;51.13;;;;;;;0.94;70.88;101468.67;1751056;81;20974;-79
2021/01/10 08:06:04;;;;;;;75.28;47.98;;;;;;;1.01;70.42;101460.45;1750737;80;21183;-81
2021/01/10 08:08:43;;;;;;;75.52;47.08;;;;;;;1.07;70.38;101459.12;1750508;80;21516;-81
2021/01/10 08:11:11;;;;;;;84.10;48.73;;;;;;;1.13;70.24;101458.20;1750288;81;20915;-80
2021/01/10 08:13:45;;;;;;;80.10;51.15;;;;;;;1.16;70.29;101457.76;1749866;81;21479;-80
2021/01/10 08:16:25;;;;;;;;;;;;;;;1.21;70.10;101459.86;1752770;80;21121;-81
2021/01/10 08:18:54;;;;;;;89.30;51.18;;;;;;;1.27;69.89;101456.39;1750690;81;21137;-81
2021/01/10 08:21:22;;;;;;;73.60;43.68;;;;;;;1.32;69.87;101460.22;1750545;81;20963;-79
2021/01/10 08:23:53;;;;;;;91.80;52.67;;;;;;;1.35;69.72;101449.41;1701298;81;20962;-80
2021/01/10 08:26:23;;;;;;;85.77;48.83;;;;;;;1.36;69.67;101448.55;1771689;79;20939;-76
2021/01/10 08:29:02;;;;;;;88.05;49.73;;;;;;;1.39;69.70;101447.66;1751941;81;21942;-80
2021/01/10 08:31:31;;;;;;;82.92;49.70;;;;;;;1.41;69.68;101445.48;1771466;79;21772;-80
2021/01/10 08:34:04;;;;;;;84.95;54.67;;;;;;;1.39;69.82;101442.05;1750705;81;21019;-81
2021/01/10 08:36:36;;;;;;;87.12;50.52;;;;;;;1.40;69.76;101446.38;1751344;81;21361;-81
2021/01/10 08:39:10;;;;;;;88.47;53.40;;;;;;;1.43;69.72;101449.36;1752163;80;20951;-80
2021/01/10 08:41:44;;;;;;;83.43;51.43;;;;;;;1.42;69.56;101440.75;1770886;81;20966;-79
2021/01/10 08:44:16;;;;;;;86.95;52.20;;;;;;;1.41;69.56;101442.90;1750297;81;21176;-80
2021/01/10 08:46:58;;;;;;;79.53;50.78;;;;;;;1.47;69.45;101437.24;1846159;76;22675;-82
2021/01/10 08:49:27;;;;;;;86.12;55.67;;;;;;;1.44;69.63;101436.84;1786542;79;21032;-81
2021/01/10 08:51:55;;;;;;;85.87;50.78;;;;;;;1.48;69.62;101437.23;1786478;79;21162;-80
2021/01/10 08:54:24;;;;;;;88.20;49.60;;;;;;;1.52;69.62;101437.64;1786168;79;21480;-82
2021/01/10 08:56:56;;;;;;;95.38;54.63;;;;;;;1.59;69.50;101435.85;1786288;79;21049;-80
2021/01/10 08:59:39;;;;;;;100.78;63.87;;;;;;;1.60;69.43;101440.13;1818008;79;21428;-78
2021/01/10 09:02:22;;;;;;;92.60;55.98;;;;;;;1.69;69.39;101432.73;1842129;78;23242;-78
2021/01/10 09:04:50;;;;;;;115.35;68.52;;;;;;;1.65;69.49;101430.63;1779810;79;20930;-77
2021/01/10 09:07:23;;;;;;;108.00;68.28;;;;;;;1.66;69.43;101429.74;1783403;79;22307;-77
2021/01/10 09:10:08;;;;;;;99.37;63.68;;;;;;;1.68;69.54;101434.91;1817296;79;21045;-79
2021/01/10 09:12:38;;;;;;;105.72;61.60;;;;;;;1.71;69.25;101425.81;1783598;79;20931;-79
2021/01/10 09:15:23;;;;;;;103.20;65.25;;;;;;;1.73;69.16;101426.22;1783275;78;20958;-77
2021/01/10 09:17:57;;;;;;;89.20;53.23;;;;;;;1.76;69.17;101420.19;1783278;79;21515;-80
2021/01/10 09:20:32;;;;;;;106.37;64.62;;;;;;;1.78;68.90;101415.82;1783433;79;22162;-78
2021/01/10 09:23:02;;;;;;;92.97;59.30;;;;;;;1.81;68.66;101409.34;1783541;79;21439;-79
2021/01/10 09:25:34;;;;;;;105.55;66.97;;;;;;;1.82;68.72;101416.21;1734163;79;21004;-79
2021/01/10 09:28:15;;;;;;;91.32;54.70;;;;;;;1.84;68.77;101405.41;1783849;79;20950;-79
2021/01/10 09:30:55;;;;;;;84.47;49.90;;;;;;;1.87;68.87;101405.41;1782918;79;21026;-76
2021/01/10 09:33:25;;;;;;;82.88;51.90;;;;;;;1.94;68.73;101408.77;1783399;79;21157;-78
2021/01/10 09:36:01;;;;;;;86.70;51.18;;;;;;;1.95;68.46;101403.56;1783577;79;21013;-81
2021/01/10 09:38:31;;;;;;;85.03;48.33;;;;;;;1.97;68.36;101401.81;1783452;79;20978;-78
2021/01/10 09:41:09;;;;;;;75.55;42.83;;;;;;;1.96;68.62;101402.70;1783219;79;20974;-78
2021/01/10 09:43:44;;;;;;;64.87;40.98;;;;;;;1.99;68.52;101400.52;1783236;79;21029;-80
2021/01/10 09:46:34;;;;;;;66.50;40.67;;;;;;;2.02;68.22;101397.47;1783351;79;20983;-79
2021/01/10 09:49:17;;;;;;;57.48;35.73;;;;;;;2.08;68.18;101393.48;1783192;79;20975;-81
2021/01/10 09:52:03;;;;;;;55.60;32.00;;;;;;;2.14;68.24;101390.42;1783354;79;20959;-78
2021/01/10 09:54:38;;;;;;;54.03;32.45;;;;;;;2.20;68.35;101387.73;1783357;79;20975;-80
2021/01/10 09:57:16;;;;;;;55.58;31.00;;;;;;;2.21;68.57;101386.88;1783081;79;20931;-79
2021/01/10 09:59:57;;;;;;;47.95;30.57;;;;;;;2.25;68.68;101385.97;1783254;79;21182;-80
2021/01/10 10:02:35;;;;;;;45.28;28.65;;;;;;;2.23;68.86;101385.13;1773124;78;20966;-80
2021/01/10 10:05:13;;;;;;;49.48;29.90;;;;;;;2.26;68.73;101394.98;1773024;79;20939;-77
2021/01/10 10:07:47;;;;;;;45.92;27.95;;;;;;;2.28;68.40;101395.82;1772711;79;21503;-80
2021/01/10 10:10:29;;;;;;;48.23;30.62;;;;;;;2.33;68.28;101398.79;1772849;79;20955;-79
2021/01/10 10:13:08;;;;;;;42.48;26.68;;;;;;;2.35;68.19;101395.30;1772215;78;20987;-81
2021/01/10 10:15:53;;;;;;;38.02;26.00;;;;;;;2.39;67.98;101393.09;1772145;79;20943;-81
2021/01/10 10:18:28;;;;;;;39.55;26.80;;;;;;;2.40;67.96;101390.94;1797927;79;20995;-81
2021/01/10 10:20:58;;;;;;;39.73;24.85;;;;;;;2.44;67.82;101391.73;1772023;79;21131;-80
2021/01/10 10:23:26;;;;;;;39.65;26.65;;;;;;;2.45;67.67;101386.55;1723663;78;21062;-82
2021/01/10 10:25:54;;;;;;;37.35;24.82;;;;;;;2.49;67.57;101389.95;1772261;79;21081;-81
2021/01/10 10:28:22;;;;;;;36.45;24.60;;;;;;;2.55;67.19;101391.14;1772312;79;21377;-79
2021/01/10 10:30:51;;;;;;;32.20;22.62;;;;;;;2.56;67.19;101390.28;1772184;79;21089;-79
2021/01/10 10:33:20;;;;;;;43.15;25.48;;;;;;;2.61;67.06;101388.47;1772228;79;21011;-79
2021/01/10 10:35:49;;;;;;;40.00;26.55;;;;;;;2.66;67.08;101388.40;1772136;79;20995;-79
2021/01/10 10:38:17;;;;;;;43.70;28.12;;;;;;;2.72;67.04;101386.17;1772272;79;21974;-84
2021/01/10 10:40:45;;;;;;;51.08;32.17;;;;;;;2.75;67.20;101384.38;1772283;79;20931;-79
2021/01/10 10:43:13;;;;;;;55.60;33.63;;;;;;;2.80;66.95;101390.77;1772271;79;21365;-78
2021/01/10 10:45:44;;;;;;;52.35;32.98;;;;;;;2.85;66.77;101391.13;1772116;79;20955;-78
2021/01/10 10:48:12;;;;;;;54.90;32.20;;;;;;;2.92;66.35;101385.86;1772264;79;20928;-79
2021/01/10 10:50:42;;;;;;;50.10;32.90;;;;;;;3.00;66.38;101386.16;1803614;79;21306;-79
2021/01/10 10:53:10;;;;;;;54.25;33.95;;;;;;;3.09;66.18;101386.00;1772123;79;21014;-80
2021/01/10 10:55:38;;;;;;;51.33;33.75;;;;;;;3.18;66.11;101389.30;1772295;79;21621;-79
2021/01/10 10:58:07;;;;;;;61.40;35.85;;;;;;;3.26;65.94;101387.44;1772292;79;20943;-79
2021/01/10 11:00:37;;;;;;;58.13;36.38;;;;;;;3.35;65.63;101389.87;1803594;78;21046;-77
2021/01/10 11:03:08;;;;;;;51.10;32.78;;;;;;;3.44;65.30;101392.73;1780604;79;21721;-78
2021/01/10 11:05:45;;;;;;;49.85;31.65;;;;;;;3.48;65.37;101394.40;1805561;78;21353;-79
2021/01/10 11:08:15;;;;;;;;;;;;;;;3.52;65.35;101393.02;1783477;79;20935;-80
2021/01/10 11:10:47;;;;;;;53.25;32.00;;;;;;;3.58;65.35;101393.36;1780809;79;20180;-82
2021/01/10 11:13:23;;;;;;;42.93;27.42;;;;;;;3.62;65.21;101388.50;1780836;79;20904;-80
2021/01/10 11:15:54;;;;;;;43.40;29.80;;;;;;;3.61;65.18;101394.59;1780694;79;21697;-80
2021/01/10 11:18:23;;;;;;;40.83;25.70;;;;;;;3.56;64.87;101399.02;1780587;79;20939;-76
2021/01/10 11:20:53;;;;;;;43.55;29.05;;;;;;;3.50;64.68;101393.48;1780761;79;21002;-78
2021/01/10 11:23:21;;;;;;;42.90;29.18;;;;;;;3.49;64.84;101396.09;1780746;79;21436;-80
2021/01/10 11:26:01;;;;;;;40.98;27.42;;;;;;;3.49;65.08;101399.56;1780868;79;21030;-79
2021/01/10 11:28:26;;;;;;;56.30;32.55;;;;;;;3.52;65.28;101403.84;1749609;81;21365;-76
2021/01/10 11:30:57;;;;;;;51.10;33.10;;;;;;;3.57;65.02;101399.86;1749849;81;21006;-80
2021/01/10 11:33:26;;;;;;;63.15;37.05;;;;;;;3.53;64.58;101395.16;1750087;81;20935;-79
2021/01/10 11:35:57;;;;;;;60.95;37.23;;;;;;;3.48;64.37;101395.70;1725974;81;21137;-80